Esperance Aerodrome, Australia
Current Conditions -  °F | °C
As of 6:00 AM on Sunday 21 Dec 2014 (Local Time) from YESP Reporting Station
Overcast Overcast  
Wind Chill: 64°   Ceiling: 600
Heat Index: 64°   Visibility: 6mi
Dew Point: 63°   Wind: 14mph
Humidity: 94%   Direction: 120°ESE
Pressure: 29.97"   Gusts: NA
Location:  33.68°S, 121.83°E
Report Text: YESP 202200Z AUTO 12012KT 9999 // BKN006 BKN012 OVC019 18/17 Q1015
Loading
Personal Weather Stations






























Interactive Weather Map New forecast layout! Learn more

10-Day Weather Forecast

Advertisements
Track Severe Weather on mobile